Time;durP1;ratioP1;P1;durP2;ratioP2;P2;SDS_P1;SDS_P2;PMS_P1;PMS_P2;Temp;Humidity;BMP_temperature;BMP_pressure;BME280_temperature;BME280_humidity;BME280_pressure;Samples;Min_cycle;Max_cycle;Signal;HPM_P1;HPM_P2
2021/08/28 00:01:47;;;;;;;2.13;1.30;;;22.90;61.20;;;;;;5106260;28;20192;-70
2021/08/28 00:04:22;;;;;;;2.67;1.40;;;22.90;61.20;;;;;;5083380;28;20200;-70
2021/08/28 00:06:51;;;;;;;2.20;1.30;;;22.90;61.20;;;;;;5088316;28;20830;-70
2021/08/28 00:09:21;;;;;;;2.20;1.43;;;22.90;61.20;;;;;;5092660;28;20564;-71
2021/08/28 00:11:51;;;;;;;1.83;1.20;;;22.90;61.20;;;;;;5111903;27;20638;-70
2021/08/28 00:14:23;;;;;;;2.37;1.17;;;22.90;61.20;;;;;;5110478;28;20208;-70
2021/08/28 00:16:56;;;;;;;3.43;1.47;;;22.90;61.20;;;;;;5100828;28;20217;-69
2021/08/28 00:19:28;;;;;;;1.73;1.10;;;22.90;61.10;;;;;;5106116;28;20227;-69
2021/08/28 00:21:58;;;;;;;2.73;1.50;;;22.90;61.10;;;;;;5100825;28;20555;-69
2021/08/28 00:24:30;;;;;;;2.13;1.50;;;22.90;61.20;;;;;;5105105;28;20197;-69
2021/08/28 00:27:00;;;;;;;1.83;1.13;;;22.90;61.10;;;;;;5100615;28;20206;-70
2021/08/28 00:29:31;;;;;;;2.13;1.20;;;22.90;61.10;;;;;;5110695;27;20212;-70
2021/08/28 00:32:02;;;;;;;1.60;1.00;;;22.90;61.10;;;;;;5085886;28;20247;-70
2021/08/28 00:34:33;;;;;;;2.07;1.43;;;22.90;61.00;;;;;;5089562;28;20223;-70
2021/08/28 00:37:01;;;;;;;2.63;1.50;;;22.90;61.60;;;;;;5103700;28;20221;-70
2021/08/28 00:39:32;;;;;;;2.50;1.40;;;22.80;61.00;;;;;;5091629;28;20201;-70
2021/08/28 00:42:04;;;;;;;1.73;1.20;;;22.90;61.10;;;;;;5090623;28;20197;-70
2021/08/28 00:44:51;;;;;;;2.10;1.27;;;22.80;60.90;;;;;;5091344;28;20201;-70
2021/08/28 00:47:24;;;;;;;1.40;1.07;;;22.80;60.90;;;;;;5089715;28;20208;-70
2021/08/28 00:49:53;;;;;;;2.40;1.10;;;22.80;60.90;;;;;;5067762;28;20213;-70
2021/08/28 00:52:26;;;;;;;2.03;1.23;;;22.80;61.00;;;;;;5085700;28;20255;-70
2021/08/28 00:54:56;;;;;;;2.00;1.20;;;22.80;60.90;;;;;;5082409;28;20193;-70
2021/08/28 00:57:27;;;;;;;3.43;1.47;;;22.80;60.90;;;;;;5086595;28;20213;-70
2021/08/28 00:59:58;;;;;;;1.30;1.03;;;22.80;60.90;;;;;;5087571;28;20198;-70
2021/08/28 01:02:29;;;;;;;1.57;1.30;;;22.80;60.80;;;;;;5088581;28;20201;-70
2021/08/28 01:05:30;;;;;;;2.37;1.23;;;22.80;61.50;;;;;;5080085;28;20197;-70
2021/08/28 01:08:38;;;;;;;3.33;1.50;;;22.80;60.80;;;;;;5091050;28;20228;-70
2021/08/28 01:11:24;;;;;;;1.83;1.30;;;22.80;60.80;;;;;;5082607;28;20221;-70
2021/08/28 01:14:04;;;;;;;1.60;1.00;;;22.80;60.80;;;;;;5093795;28;20203;-70
2021/08/28 01:16:34;;;;;;;1.70;1.10;;;22.80;60.80;;;;;;5090637;28;20224;-70
2021/08/28 01:19:36;;;;;;;2.30;1.50;;;22.80;60.80;;;;;;5048390;28;20635;-70
2021/08/28 01:22:14;;;;;;;1.80;1.30;;;22.80;60.70;;;;;;5089949;28;20201;-70
2021/08/28 01:24:47;;;;;;;2.00;0.97;;;22.80;60.70;;;;;;5091971;28;20193;-70
2021/08/28 01:27:21;;;;;;;2.23;1.20;;;22.80;60.70;;;;;;5084469;28;20217;-70
2021/08/28 01:29:58;;;;;;;2.03;1.30;;;22.80;60.70;;;;;;5083067;28;20208;-70
2021/08/28 01:32:29;;;;;;;2.37;1.30;;;22.80;60.70;;;;;;5037964;28;20258;-69
2021/08/28 01:35:00;;;;;;;1.83;1.10;;;22.70;60.60;;;;;;5082431;28;20201;-70
2021/08/28 01:37:31;;;;;;;2.00;1.47;;;22.80;60.60;;;;;;5086747;28;20728;-69
2021/08/28 01:40:06;;;;;;;2.87;1.40;;;22.70;60.50;;;;;;5086910;28;20258;-69
2021/08/28 01:42:42;;;;;;;1.40;1.13;;;22.70;60.40;;;;;;5092071;28;20200;-70
2021/08/28 01:45:17;;;;;;;3.30;1.70;;;22.70;60.40;;;;;;5085298;28;20197;-70
2021/08/28 01:48:07;;;;;;;2.20;1.33;;;22.80;60.50;;;;;;5087018;28;20217;-70
2021/08/28 01:50:43;;;;;;;1.97;1.10;;;22.70;60.40;;;;;;5085137;28;20192;-70
2021/08/28 01:53:12;;;;;;;2.23;1.20;;;22.70;60.40;;;;;;5086492;28;20578;-70
2021/08/28 01:55:42;;;;;;;2.27;1.40;;;22.70;60.40;;;;;;5056691;28;20216;-70
2021/08/28 01:58:15;;;;;;;2.20;0.90;;;22.70;60.40;;;;;;5046291;28;20586;-70
2021/08/28 02:00:45;;;;;;;2.37;1.33;;;22.70;60.30;;;;;;5063816;28;20189;-71
2021/08/28 02:03:21;;;;;;;2.03;1.30;;;22.70;60.40;;;;;;5080797;28;20197;-70
2021/08/28 02:06:05;;;;;;;2.30;1.50;;;22.70;60.30;;;;;;5053991;28;20189;-70
2021/08/28 02:09:01;;;;;;;2.27;1.13;;;22.70;60.30;;;;;;5066941;28;20213;-70
2021/08/28 02:11:45;;;;;;;2.30;1.40;;;22.70;60.30;;;;;;5066779;28;20193;-69
2021/08/28 02:14:21;;;;;;;1.97;1.40;;;22.70;60.30;;;;;;5054020;28;20757;-70
2021/08/28 02:16:50;;;;;;;3.00;1.30;;;22.70;60.30;;;;;;5081973;28;20794;-70
2021/08/28 02:19:27;;;;;;;3.70;1.60;;;22.70;60.30;;;;;;5088633;28;20306;-70
2021/08/28 02:21:59;;;;;;;2.60;1.53;;;22.70;60.30;;;;;;5065599;28;20205;-70
2021/08/28 02:24:35;;;;;;;1.30;1.07;;;22.70;60.40;;;;;;5055496;28;20197;-70
2021/08/28 02:27:31;;;;;;;1.60;1.10;;;22.70;60.30;;;;;;5034927;28;20206;-70
2021/08/28 02:30:09;;;;;;;1.83;1.33;;;22.70;60.30;;;;;;5064920;28;20267;-70
2021/08/28 02:32:57;;;;;;;1.73;1.10;;;22.70;60.20;;;;;;5105789;28;20216;-69
2021/08/28 02:35:29;;;;;;;1.60;1.10;;;22.70;60.30;;;;;;5092877;28;20703;-70
2021/08/28 02:38:02;;;;;;;2.03;1.40;;;22.70;60.20;;;;;;5090795;28;20576;-70
2021/08/28 02:40:35;;;;;;;3.30;1.50;;;22.70;60.30;;;;;;5087130;28;20193;-70
2021/08/28 02:43:07;;;;;;;2.80;1.13;;;22.70;60.30;;;;;;5098088;28;20279;-70
2021/08/28 02:45:39;;;;;;;3.70;1.27;;;22.70;60.30;;;;;;5103768;28;20220;-70
2021/08/28 02:48:17;;;;;;;1.60;1.47;;;22.70;60.30;;;;;;5091566;28;20519;-70
2021/08/28 02:50:51;;;;;;;2.50;1.10;;;22.60;60.30;;;;;;5084089;28;20637;-70
2021/08/28 02:53:28;;;;;;;2.70;1.27;;;22.70;60.30;;;;;;5074802;28;20210;-69
2021/08/28 02:56:05;;;;;;;2.50;1.27;;;22.70;60.30;;;;;;5089128;28;20265;-69
2021/08/28 02:58:41;;;;;;;2.20;1.20;;;22.70;60.20;;;;;;5108835;28;20232;-69
2021/08/28 03:01:17;;;;;;;1.60;1.27;;;22.60;60.20;;;;;;5086360;28;20196;-69
2021/08/28 03:03:50;;;;;;;2.37;1.43;;;22.60;60.20;;;;;;5086681;28;20585;-69
2021/08/28 03:06:27;;;;;;;1.60;1.10;;;22.70;60.30;;;;;;5078653;28;20247;-69
2021/08/28 03:08:57;;;;;;;4.07;1.67;;;22.60;60.20;;;;;;5108381;28;20292;-69
2021/08/28 03:11:25;;;;;;;1.67;1.20;;;22.60;60.00;;;;;;5110446;28;20267;-70
2021/08/28 03:13:55;;;;;;;2.07;1.20;;;22.60;60.20;;;;;;5106316;28;20287;-69
2021/08/28 03:16:29;;;;;;;2.17;1.17;;;22.70;60.20;;;;;;5087489;28;20757;-69
2021/08/28 03:19:00;;;;;;;2.40;1.40;;;22.60;60.10;;;;;;5086337;28;20209;-69
2021/08/28 03:21:33;;;;;;;2.00;1.27;;;22.60;60.10;;;;;;5079663;28;20593;-69
2021/08/28 03:24:03;;;;;;;1.93;1.30;;;22.60;60.20;;;;;;5087541;28;20193;-70
2021/08/28 03:26:47;;;;;;;3.07;1.63;;;22.60;60.20;;;;;;5108768;28;20208;-70
2021/08/28 03:29:21;;;;;;;2.23;1.43;;;22.60;60.10;;;;;;5090476;28;20200;-69
2021/08/28 03:31:54;;;;;;;2.20;1.20;;;22.70;60.10;;;;;;5091265;28;20235;-70
2021/08/28 03:34:51;;;;;;;2.53;1.30;;;22.60;60.20;;;;;;5093191;28;20199;-70
2021/08/28 03:37:27;;;;;;;1.63;1.13;;;22.60;60.10;;;;;;5086046;28;20265;-70
2021/08/28 03:40:00;;;;;;;1.70;1.30;;;22.60;60.10;;;;;;5074139;28;20190;-70
2021/08/28 03:42:42;;;;;;;1.57;1.20;;;22.60;60.20;;;;;;5108873;28;20295;-70
2021/08/28 03:45:16;;;;;;;2.57;1.30;;;22.60;60.20;;;;;;5077980;28;20196;-69
2021/08/28 03:47:46;;;;;;;1.70;1.07;;;22.60;60.20;;;;;;5100771;28;20263;-70
2021/08/28 03:50:15;;;;;;;1.17;0.97;;;22.60;60.20;;;;;;5096434;28;20193;-69
2021/08/28 03:52:48;;;;;;;1.93;1.20;;;22.60;60.20;;;;;;5097504;28;20212;-69
2021/08/28 03:55:20;;;;;;;1.57;1.30;;;22.60;60.20;;;;;;5079799;28;20257;-69
2021/08/28 03:57:50;;;;;;;2.80;1.50;;;22.60;60.20;;;;;;5078862;28;20270;-69
2021/08/28 04:00:22;;;;;;;2.00;1.27;;;22.60;60.20;;;;;;5104021;28;21212;-70
2021/08/28 04:02:52;;;;;;;1.37;1.10;;;22.60;60.10;;;;;;5094584;28;20188;-70
2021/08/28 04:05:20;;;;;;;2.50;1.23;;;22.60;60.10;;;;;;5099943;28;20202;-70
2021/08/28 04:07:51;;;;;;;1.87;1.23;;;22.60;60.10;;;;;;5096869;28;20216;-70
2021/08/28 04:10:41;;;;;;;2.63;1.73;;;22.60;60.10;;;;;;5106187;28;20208;-70
2021/08/28 04:13:11;;;;;;;3.10;1.50;;;22.60;60.10;;;;;;5107499;28;20228;-70
2021/08/28 04:15:41;;;;;;;1.47;1.13;;;22.60;60.10;;;;;;5111725;28;20195;-70
2021/08/28 04:18:11;;;;;;;2.33;1.47;;;22.60;60.10;;;;;;5086660;28;20701;-70
2021/08/28 04:20:45;;;;;;;3.27;1.73;;;22.60;60.10;;;;;;5108422;28;20185;-70
2021/08/28 04:23:16;;;;;;;1.93;1.40;;;22.60;60.10;;;;;;5102033;28;20205;-70
2021/08/28 04:25:46;;;;;;;3.17;1.60;;;22.60;60.00;;;;;;5101430;28;20192;-69
2021/08/28 04:28:17;;;;;;;2.03;1.43;;;22.60;60.00;;;;;;5104983;28;20216;-70
2021/08/28 04:30:45;;;;;;;3.73;1.37;;;22.60;60.00;;;;;;5099381;28;20200;-69
2021/08/28 04:33:16;;;;;;;1.60;1.30;;;22.60;60.00;;;;;;5106845;28;20204;-69
2021/08/28 04:35:47;;;;;;;1.50;1.20;;;22.60;60.00;;;;;;5076516;28;20188;-69
2021/08/28 04:38:16;;;;;;;2.30;1.57;;;22.60;60.00;;;;;;5108787;28;20821;-69
2021/08/28 04:40:45;;;;;;;2.97;1.67;;;22.60;60.00;;;;;;5094698;28;20184;-68
2021/08/28 04:43:16;;;;;;;2.53;1.53;;;22.60;60.00;;;;;;5091105;28;20604;-68
2021/08/28 04:45:45;;;;;;;2.33;1.70;;;22.60;60.00;;;;;;5112814;28;20212;-69
2021/08/28 04:48:17;;;;;;;2.53;1.50;;;22.60;60.00;;;;;;5109637;28;20281;-69
2021/08/28 04:50:49;;;;;;;2.40;1.50;;;22.60;60.00;;;;;;5112388;28;20200;-69
2021/08/28 04:53:18;;;;;;;2.23;1.37;;;22.60;60.00;;;;;;5069068;28;20532;-69
2021/08/28 04:55:46;;;;;;;1.90;1.30;;;22.60;60.10;;;;;;5098092;28;20269;-69
2021/08/28 04:58:18;;;;;;;3.77;1.70;;;22.60;60.10;;;;;;5099895;28;20205;-69
2021/08/28 05:01:03;;;;;;;3.17;1.77;;;22.60;60.00;;;;;;5103452;28;20275;-69
2021/08/28 05:03:31;;;;;;;2.60;1.70;;;22.60;60.00;;;;;;5106581;28;20185;-71
2021/08/28 05:06:02;;;;;;;2.87;1.70;;;22.60;60.10;;;;;;5107676;28;20216;-71
2021/08/28 05:08:36;;;;;;;2.37;1.40;;;22.50;60.10;;;;;;5110396;28;20273;-70
2021/08/28 05:11:06;;;;;;;2.60;1.67;;;22.60;60.20;;;;;;5107965;28;20651;-70
2021/08/28 05:13:35;;;;;;;4.30;1.97;;;22.50;60.20;;;;;;5109410;28;20192;-68
2021/08/28 05:16:07;;;;;;;3.10;1.67;;;22.60;60.30;;;;;;5103770;28;20212;-68
2021/08/28 05:18:38;;;;;;;3.20;2.13;;;22.50;60.20;;;;;;5106656;28;20222;-70
2021/08/28 05:21:07;;;;;;;3.00;1.80;;;22.60;60.50;;;;;;5090324;28;20253;-68
2021/08/28 05:23:37;;;;;;;18.07;4.53;;;22.60;60.30;;;;;;5100759;28;20545;-68
2021/08/28 05:26:07;;;;;;;17.03;4.90;;;22.60;60.80;;;;;;5107114;28;20679;-68
2021/08/28 05:28:37;;;;;;;16.93;5.40;;;22.60;60.80;;;;;;5089486;28;20291;-67
2021/08/28 05:31:08;;;;;;;23.50;6.23;;;22.60;60.80;;;;;;5107324;28;20293;-67
2021/08/28 05:33:38;;;;;;;21.43;6.03;;;22.60;60.70;;;;;;5086869;27;20309;-67
2021/08/28 05:36:06;;;;;;;17.97;5.97;;;22.50;60.80;;;;;;5103105;28;20196;-68
2021/08/28 05:38:35;;;;;;;21.13;6.57;;;22.60;60.90;;;;;;5082654;28;20303;-68
2021/08/28 05:41:08;;;;;;;22.63;6.20;;;22.60;60.80;;;;;;5108834;28;20196;-67
2021/08/28 05:43:44;;;;;;;17.27;6.17;;;22.60;60.90;;;;;;5102084;28;20265;-67
2021/08/28 05:46:14;;;;;;;18.00;6.10;;;22.60;61.00;;;;;;5089865;28;20188;-67
2021/08/28 05:48:46;;;;;;;15.57;5.83;;;22.60;60.80;;;;;;5109013;28;20224;-67
2021/08/28 05:51:17;;;;;;;15.10;5.50;;;22.50;60.80;;;;;;5098968;28;20223;-68
2021/08/28 05:53:48;;;;;;;17.13;5.97;;;22.50;60.70;;;;;;5104632;28;20575;-68
2021/08/28 05:56:19;;;;;;;18.60;5.93;;;22.60;60.70;;;;;;5111949;28;20667;-67
2021/08/28 05:58:48;;;;;;;13.53;5.33;;;22.60;60.70;;;;;;5109063;28;20726;-69
2021/08/28 06:01:20;;;;;;;14.43;5.40;;;22.60;60.70;;;;;;5090755;28;20201;-67
2021/08/28 06:03:51;;;;;;;15.53;5.90;;;22.60;60.70;;;;;;5108616;28;20560;-69
2021/08/28 06:06:23;;;;;;;12.57;4.77;;;22.60;60.60;;;;;;5094218;28;20628;-68
2021/08/28 06:08:54;;;;;;;11.77;5.40;;;22.60;60.60;;;;;;5104460;28;20197;-68
2021/08/28 06:11:25;;;;;;;13.60;4.63;;;22.60;60.50;;;;;;5096468;28;20212;-69
2021/08/28 06:13:56;;;;;;;11.70;5.00;;;22.60;60.50;;;;;;5096316;28;20198;-68
2021/08/28 06:16:29;;;;;;;9.80;4.60;;;22.60;60.50;;;;;;5096992;28;20196;-68
2021/08/28 06:19:01;;;;;;;10.97;4.63;;;22.60;60.50;;;;;;5084604;28;20220;-68
2021/08/28 06:21:34;;;;;;;10.13;4.20;;;22.60;60.40;;;;;;5106811;28;20207;-69
2021/08/28 06:24:05;;;;;;;8.93;4.00;;;22.60;60.40;;;;;;5096283;28;20213;-68
2021/08/28 06:26:36;;;;;;;10.93;4.10;;;22.60;60.40;;;;;;5103609;28;20200;-69
2021/08/28 06:29:07;;;;;;;9.00;3.63;;;22.60;60.40;;;;;;5086773;28;20588;-68
2021/08/28 06:31:37;;;;;;;7.53;4.10;;;22.60;60.40;;;;;;5105025;28;20750;-69
2021/08/28 06:34:09;;;;;;;9.63;4.47;;;22.60;60.50;;;;;;5092863;28;20227;-68
2021/08/28 06:36:38;;;;;;;7.93;3.80;;;22.60;60.40;;;;;;5104254;28;20197;-69
2021/08/28 06:39:07;;;;;;;5.20;3.03;;;22.60;60.40;;;;;;5098238;28;20522;-68
2021/08/28 06:41:38;;;;;;;8.33;3.33;;;22.60;60.30;;;;;;5104332;28;20618;-68
2021/08/28 06:44:07;;;;;;;8.80;3.50;;;22.60;60.40;;;;;;5095227;28;20204;-69
2021/08/28 06:46:39;;;;;;;5.67;3.53;;;22.60;60.30;;;;;;5107173;27;20532;-68
2021/08/28 06:49:08;;;;;;;7.00;3.27;;;22.60;60.20;;;;;;5110336;28;20279;-69
2021/08/28 06:51:40;;;;;;;5.67;2.90;;;22.60;60.20;;;;;;5077634;28;20197;-69
2021/08/28 06:54:07;;;;;;;5.93;2.73;;;22.60;60.90;;;;;;5090755;28;20203;-68
2021/08/28 06:56:37;;;;;;;7.40;3.10;;;22.60;60.20;;;;;;5100456;27;20200;-69
2021/08/28 06:59:07;;;;;;;4.23;2.70;;;22.60;60.20;;;;;;5105170;28;20289;-68
2021/08/28 07:01:35;;;;;;;4.53;2.67;;;22.60;60.20;;;;;;5096662;28;20205;-68
2021/08/28 07:04:06;;;;;;;6.60;3.07;;;22.60;60.20;;;;;;5107660;28;20192;-68
2021/08/28 07:06:37;;;;;;;3.83;2.80;;;22.60;60.20;;;;;;5098659;28;20208;-68
2021/08/28 07:09:05;;;;;;;3.60;2.43;;;22.60;60.10;;;;;;5103658;28;20419;-68
2021/08/28 07:11:40;;;;;;;4.30;2.50;;;22.60;60.20;;;;;;5099543;28;20273;-68
2021/08/28 07:14:08;;;;;;;5.97;2.20;;;22.60;60.20;;;;;;5107522;28;20208;-68
2021/08/28 07:16:41;;;;;;;5.33;2.27;;;22.60;60.20;;;;;;5092216;28;20741;-69
2021/08/28 07:19:27;;;;;;;4.70;2.20;;;22.60;60.20;;;;;;5104224;28;20249;-69
2021/08/28 07:21:57;;;;;;;3.97;2.30;;;22.60;60.20;;;;;;5107890;28;20196;-69
2021/08/28 07:24:26;;;;;;;5.37;2.77;;;22.60;60.10;;;;;;5108750;28;20361;-68
2021/08/28 07:27:00;;;;;;;3.43;2.20;;;22.60;60.20;;;;;;5109266;28;20201;-68
2021/08/28 07:29:32;;;;;;;3.60;2.50;;;22.60;60.20;;;;;;5080777;28;20207;-68
2021/08/28 07:32:00;;;;;;;4.07;2.77;;;22.60;60.20;;;;;;5084829;28;20323;-68
2021/08/28 07:34:36;;;;;;;3.37;2.47;;;22.60;60.20;;;;;;5098621;28;20201;-69
2021/08/28 07:37:13;;;;;;;4.17;2.50;;;22.60;60.20;;;;;;5102581;28;20579;-69
2021/08/28 07:39:42;;;;;;;3.13;2.03;;;22.60;60.20;;;;;;5090444;28;20235;-69
2021/08/28 07:42:11;;;;;;;4.27;2.03;;;22.60;60.20;;;;;;5074442;28;20211;-69
2021/08/28 07:44:43;;;;;;;3.20;2.23;;;22.60;60.20;;;;;;5092094;28;20201;-68
2021/08/28 07:47:17;;;;;;;3.73;2.40;;;22.60;60.20;;;;;;5088695;28;20590;-69
2021/08/28 07:49:47;;;;;;;2.77;2.07;;;22.60;60.20;;;;;;5103200;28;20284;-69
2021/08/28 07:52:18;;;;;;;2.80;1.90;;;22.60;60.20;;;;;;5109936;28;20747;-69
2021/08/28 07:54:49;;;;;;;2.57;2.10;;;22.60;60.20;;;;;;5106548;28;20649;-70
2021/08/28 07:57:23;;;;;;;2.63;1.93;;;22.60;60.20;;;;;;5081297;28;20212;-69
2021/08/28 07:59:52;;;;;;;2.00;1.80;;;22.60;60.20;;;;;;5101910;28;20243;-69
2021/08/28 08:02:24;;;;;;;2.77;1.93;;;22.60;60.20;;;;;;5098242;28;20252;-69
2021/08/28 08:05:03;;;;;;;2.93;1.90;;;22.60;60.20;;;;;;5104203;28;20286;-69
2021/08/28 08:07:33;;;;;;;3.30;1.90;;;22.70;60.20;;;;;;5098519;28;20361;-69
2021/08/28 08:10:05;;;;;;;3.57;1.90;;;22.70;60.30;;;;;;5107326;28;20204;-69
2021/08/28 08:12:35;;;;;;;2.83;2.00;;;22.70;60.30;;;;;;5091369;28;20254;-69
2021/08/28 08:15:06;;;;;;;4.20;2.57;;;22.60;60.50;;;;;;5062699;28;20277;-69
2021/08/28 08:17:36;;;;;;;3.63;2.00;;;22.70;60.50;;;;;;5105723;28;20546;-69
2021/08/28 08:20:13;;;;;;;3.33;2.13;;;22.60;60.40;;;;;;5106301;28;20272;-69
2021/08/28 08:22:43;;;;;;;4.47;2.20;;;22.70;60.30;;;;;;5096661;28;20526;-69
2021/08/28 08:25:13;;;;;;;3.17;2.23;;;22.70;60.30;;;;;;5085187;28;20209;-69
2021/08/28 08:27:43;;;;;;;2.67;2.17;;;22.70;60.30;;;;;;5079088;28;20207;-70
2021/08/28 08:30:17;;;;;;;2.87;2.20;;;22.70;60.30;;;;;;5087080;28;20552;-69
2021/08/28 08:32:49;;;;;;;2.57;2.10;;;22.70;60.30;;;;;;5083631;28;20216;-69
2021/08/28 08:35:18;;;;;;;3.03;2.00;;;22.70;60.40;;;;;;5094375;27;20216;-69
2021/08/28 08:37:52;;;;;;;3.13;2.13;;;22.70;60.30;;;;;;5107878;28;23838;-69
2021/08/28 08:40:26;;;;;;;2.97;2.30;;;22.70;60.40;;;;;;5110506;28;20216;-68
2021/08/28 08:43:05;;;;;;;1.97;1.60;;;22.70;60.40;;;;;;5079009;28;20211;-69
2021/08/28 08:45:42;;;;;;;3.93;2.23;;;22.70;60.40;;;;;;5077896;28;20678;-69
2021/08/28 08:48:35;;;;;;;3.00;2.43;;;22.80;60.60;;;;;;5093239;28;20666;-69
2021/08/28 08:51:06;;;;;;;2.40;2.17;;;22.70;60.50;;;;;;5085306;28;20219;-69
2021/08/28 08:53:36;;;;;;;3.33;1.97;;;22.70;60.40;;;;;;5106168;28;20192;-69
2021/08/28 08:56:07;;;;;;;3.40;2.37;;;22.70;60.40;;;;;;5087971;28;20207;-69
2021/08/28 08:58:41;;;;;;;2.77;1.83;;;22.70;60.40;;;;;;5093202;28;20204;-69
2021/08/28 09:01:12;;;;;;;2.80;1.97;;;22.70;60.40;;;;;;5072318;28;20228;-69
2021/08/28 09:03:45;;;;;;;3.03;2.20;;;22.70;60.30;;;;;;5109393;28;20197;-69
2021/08/28 09:06:17;;;;;;;4.00;2.10;;;22.70;60.50;;;;;;5108423;28;20617;-69
2021/08/28 09:08:50;;;;;;;2.50;1.80;;;22.70;60.40;;;;;;5090194;28;20211;-69
2021/08/28 09:11:33;;;;;;;2.70;2.13;;;22.70;60.40;;;;;;5109696;28;20261;-69
2021/08/28 09:14:20;;;;;;;3.60;2.10;;;22.70;60.40;;;;;;5081060;28;20192;-69
2021/08/28 09:16:52;;;;;;;2.67;2.07;;;22.70;60.50;;;;;;5091769;28;20204;-69
2021/08/28 09:19:42;;;;;;;2.80;2.20;;;22.80;60.50;;;;;;5089992;28;20220;-69
2021/08/28 09:22:32;;;;;;;2.50;2.13;;;22.80;60.40;;;;;;5098947;28;20193;-69
2021/08/28 09:25:07;;;;;;;3.80;2.10;;;22.80;60.50;;;;;;5093132;28;20578;-69
2021/08/28 09:27:55;;;;;;;2.83;2.00;;;22.80;60.60;;;;;;5092826;28;20196;-69
2021/08/28 09:30:45;;;;;;;2.47;2.03;;;22.80;60.60;;;;;;5103432;28;20201;-69
2021/08/28 09:33:24;;;;;;;4.37;2.57;;;22.80;60.60;;;;;;5101060;28;20230;-69
2021/08/28 09:36:08;;;;;;;2.30;2.07;;;22.80;60.80;;;;;;5093780;28;20247;-69
2021/08/28 09:38:50;;;;;;;2.30;1.93;;;22.80;60.80;;;;;;5096934;28;20400;-69
2021/08/28 09:41:39;;;;;;;2.27;2.07;;;22.80;60.70;;;;;;5104394;28;20232;-69
2021/08/28 09:44:12;;;;;;;2.63;2.17;;;22.80;60.60;;;;;;5104103;28;20197;-69
2021/08/28 09:46:43;;;;;;;2.63;2.37;;;22.80;60.70;;;;;;5094332;28;20195;-69
2021/08/28 09:49:23;;;;;;;2.60;2.30;;;22.80;60.70;;;;;;5063199;28;20200;-69
2021/08/28 09:51:51;;;;;;;2.63;2.07;;;22.80;60.90;;;;;;5083945;28;20193;-69
2021/08/28 09:54:23;;;;;;;5.10;2.63;;;22.80;60.70;;;;;;5105885;28;20193;-69
2021/08/28 09:57:07;;;;;;;3.40;2.37;;;22.80;61.00;;;;;;5094587;28;20630;-69
2021/08/28 09:59:50;;;;;;;3.00;2.30;;;22.80;60.70;;;;;;5099552;28;20287;-69
2021/08/28 10:02:24;;;;;;;3.40;2.40;;;22.80;60.70;;;;;;5105139;28;20200;-69
2021/08/28 10:05:00;;;;;;;2.93;2.30;;;22.80;60.90;;;;;;5101314;28;20185;-69
2021/08/28 10:07:32;;;;;;;3.60;2.60;;;22.80;61.00;;;;;;5103635;28;20617;-69
2021/08/28 10:10:14;;;;;;;3.50;2.20;;;22.80;61.00;;;;;;5089877;28;20236;-69
2021/08/28 10:12:50;;;;;;;2.90;2.40;;;22.80;61.00;;;;;;5068639;28;20200;-69
2021/08/28 10:15:20;;;;;;;3.03;2.50;;;22.80;60.90;;;;;;5068428;28;20254;-69
2021/08/28 10:17:49;;;;;;;2.67;2.07;;;22.80;61.00;;;;;;5088183;28;20197;-70
2021/08/28 10:20:19;;;;;;;2.60;2.40;;;22.80;61.00;;;;;;5077652;28;20243;-69
2021/08/28 10:22:54;;;;;;;3.27;2.33;;;22.80;61.00;;;;;;5071738;28;20196;-69
2021/08/28 10:25:32;;;;;;;3.37;2.27;;;22.80;61.10;;;;;;5110108;28;20665;-69
2021/08/28 10:28:11;;;;;;;2.83;2.17;;;22.80;60.90;;;;;;5096857;28;20192;-69
2021/08/28 10:30:45;;;;;;;2.83;2.43;;;22.80;60.90;;;;;;5103063;28;20212;-69
2021/08/28 10:33:16;;;;;;;3.83;2.83;;;22.80;61.10;;;;;;5091794;28;20236;-70
2021/08/28 10:35:49;;;;;;;2.77;2.57;;;22.90;61.10;;;;;;5087918;28;20219;-69
2021/08/28 10:38:26;;;;;;;2.97;2.30;;;22.80;61.10;;;;;;5096104;28;20313;-69
2021/08/28 10:40:57;;;;;;;3.43;2.60;;;22.80;61.10;;;;;;5103659;28;20238;-69
2021/08/28 10:43:29;;;;;;;3.40;2.77;;;22.80;61.10;;;;;;5077078;28;20192;-70
2021/08/28 10:46:02;;;;;;;3.03;2.70;;;22.90;61.20;;;;;;5106771;28;20262;-69
2021/08/28 10:48:54;;;;;;;3.70;3.00;;;22.90;61.20;;;;;;5103551;28;20250;-69
2021/08/28 10:51:30;;;;;;;4.00;2.87;;;22.90;61.30;;;;;;5101150;28;20240;-69
2021/08/28 10:54:11;;;;;;;3.13;2.87;;;22.90;61.20;;;;;;5083152;28;20200;-69
2021/08/28 10:56:54;;;;;;;2.97;2.63;;;22.90;61.20;;;;;;5055810;28;20212;-69
2021/08/28 10:59:46;;;;;;;3.20;2.90;;;22.90;61.20;;;;;;5088086;28;20658;-69
2021/08/28 11:02:16;;;;;;;3.00;2.63;;;22.90;61.20;;;;;;5104960;28;20552;-69
2021/08/28 11:04:50;;;;;;;3.57;2.53;;;22.90;61.20;;;;;;5088091;28;20218;-69
2021/08/28 11:07:28;;;;;;;2.73;2.53;;;22.90;61.20;;;;;;5106642;28;20265;-69
2021/08/28 11:10:14;;;;;;;3.70;3.00;;;22.90;61.90;;;;;;5103067;28;20188;-70
2021/08/28 11:12:59;;;;;;;2.73;2.53;;;22.90;61.20;;;;;;5108423;28;20196;-70
2021/08/28 11:15:37;;;;;;;2.70;2.50;;;22.90;61.40;;;;;;5091432;28;20208;-70
2021/08/28 11:18:49;;;;;;;3.10;2.63;;;22.90;61.20;;;;;;5106613;28;20207;-70
2021/08/28 11:21:20;;;;;;;2.77;2.50;;;22.90;61.20;;;;;;5086675;28;20228;-70
2021/08/28 11:23:55;;;;;;;3.23;2.37;;;22.90;61.20;;;;;;5090570;28;20199;-69
2021/08/28 11:26:35;;;;;;;2.63;2.43;;;22.90;61.20;;;;;;5112471;28;20199;-69
2021/08/28 11:29:25;;;;;;;3.17;2.87;;;22.90;61.20;;;;;;5062756;28;20192;-70
2021/08/28 11:32:14;;;;;;;3.67;3.17;;;23.00;61.30;;;;;;5106097;28;20720;-70
2021/08/28 11:34:47;;;;;;;3.07;2.77;;;23.00;61.90;;;;;;5114616;28;20192;-70
2021/08/28 11:37:29;;;;;;;2.80;2.50;;;22.90;61.20;;;;;;5092557;28;20634;-70
2021/08/28 11:40:07;;;;;;;3.43;2.90;;;23.00;61.20;;;;;;5096126;28;20228;-69
2021/08/28 11:42:42;;;;;;;2.60;2.40;;;23.00;61.10;;;;;;5111165;28;20196;-69
2021/08/28 11:45:16;;;;;;;3.27;2.97;;;23.00;61.10;;;;;;5082824;28;20205;-69
2021/08/28 11:47:47;;;;;;;3.10;2.70;;;23.00;61.20;;;;;;5085489;28;20658;-69
2021/08/28 11:50:19;;;;;;;3.03;2.73;;;23.00;61.10;;;;;;5097681;28;20674;-69
2021/08/28 11:53:04;;;;;;;3.07;2.77;;;23.00;61.00;;;;;;5097754;28;20269;-70
2021/08/28 11:55:36;;;;;;;3.50;2.73;;;23.00;61.10;;;;;;5106611;28;20677;-69
2021/08/28 11:58:12;;;;;;;4.10;2.80;;;23.00;61.10;;;;;;5095449;28;20214;-69
2021/08/28 12:00:42;;;;;;;3.03;2.70;;;23.00;61.10;;;;;;5092292;28;20200;-69
2021/08/28 12:03:19;;;;;;;3.50;2.70;;;23.00;61.10;;;;;;5074939;28;20300;-69
2021/08/28 12:05:54;;;;;;;3.07;2.60;;;23.00;61.00;;;;;;5104307;28;20208;-69
2021/08/28 12:08:22;;;;;;;2.90;2.57;;;23.00;61.10;;;;;;5065021;28;20280;-70
2021/08/28 12:10:53;;;;;;;2.93;2.73;;;23.00;61.20;;;;;;5069771;28;20739;-70
2021/08/28 12:13:24;;;;;;;3.00;2.80;;;23.00;61.00;;;;;;5106393;28;20204;-70
2021/08/28 12:15:56;;;;;;;3.63;2.70;;;23.00;61.00;;;;;;5099920;28;20197;-70
2021/08/28 12:18:26;;;;;;;2.83;2.60;;;23.00;61.00;;;;;;5085792;28;20656;-70
2021/08/28 12:21:11;;;;;;;2.37;2.17;;;23.00;61.60;;;;;;5070843;28;20212;-70
2021/08/28 12:23:40;;;;;;;2.60;2.40;;;23.00;60.90;;;;;;5100667;28;20196;-69
2021/08/28 12:26:19;;;;;;;2.57;2.37;;;23.00;60.80;;;;;;5099710;28;20237;-69
2021/08/28 12:28:53;;;;;;;2.50;2.30;;;23.00;61.00;;;;;;5072730;28;20561;-69
2021/08/28 12:31:22;;;;;;;2.80;2.43;;;23.00;60.80;;;;;;5117163;27;20229;-69
2021/08/28 12:33:52;;;;;;;2.67;2.47;;;23.00;60.80;;;;;;5103935;28;20556;-69
2021/08/28 12:36:32;;;;;;;2.77;2.57;;;23.00;60.80;;;;;;5078202;28;20606;-70
2021/08/28 12:39:05;;;;;;;2.83;2.43;;;23.00;60.80;;;;;;5108057;28;20196;-69
2021/08/28 12:42:13;;;;;;;3.03;2.70;;;23.00;60.70;;;;;;5110262;28;20714;-70
2021/08/28 12:44:59;;;;;;;2.97;2.67;;;23.00;60.70;;;;;;5084365;28;20194;-69
2021/08/28 12:47:33;;;;;;;2.43;2.23;;;23.00;61.40;;;;;;5091340;28;20816;-69
2021/08/28 12:50:09;;;;;;;2.77;2.40;;;23.00;60.60;;;;;;5079166;28;20208;-70
2021/08/28 12:52:45;;;;;;;3.10;2.50;;;23.10;60.60;;;;;;5104109;28;20241;-70
2021/08/28 12:55:24;;;;;;;2.87;2.40;;;23.00;60.60;;;;;;5087890;28;20220;-70
2021/08/28 12:58:11;;;;;;;2.97;2.57;;;23.10;60.50;;;;;;5086101;28;20701;-69
2021/08/28 13:00:49;;;;;;;2.70;2.50;;;23.10;60.60;;;;;;5083141;28;20297;-69
2021/08/28 13:03:30;;;;;;;2.60;2.30;;;23.10;60.60;;;;;;5110563;28;20228;-69
2021/08/28 13:06:22;;;;;;;3.10;2.60;;;23.10;60.50;;;;;;5106646;28;20232;-69
2021/08/28 13:08:53;;;;;;;2.67;2.47;;;23.10;60.50;;;;;;5088812;28;20250;-70
2021/08/28 13:11:25;;;;;;;2.50;2.30;;;23.10;60.60;;;;;;5106868;28;20240;-69
2021/08/28 13:14:00;;;;;;;3.07;2.27;;;23.10;60.50;;;;;;5099251;28;20200;-69
2021/08/28 13:16:31;;;;;;;2.37;2.17;;;23.10;60.50;;;;;;5109463;28;20226;-69
2021/08/28 13:19:14;;;;;;;2.57;2.37;;;23.10;60.60;;;;;;5109881;28;20196;-69
2021/08/28 13:21:56;;;;;;;2.47;2.27;;;23.10;60.60;;;;;;5093654;28;20254;-69
2021/08/28 13:24:27;;;;;;;2.43;2.23;;;23.10;60.60;;;;;;5109347;28;20250;-70